sensor_id;sensor_type;location;lat;lon;timestamp;P1;durP1;ratioP1;P2;durP2;ratioP2
33268;SDS011;19640;50.944;5.260;2023-12-20T00:01:17;12.45;;;2.55;;
33268;SDS011;19640;50.944;5.260;2023-12-20T00:03:44;15.57;;;2.75;;
33268;SDS011;19640;50.944;5.260;2023-12-20T00:06:09;13.13;;;1.90;;
33268;SDS011;19640;50.944;5.260;2023-12-20T00:08:35;14.15;;;1.90;;
33268;SDS011;19640;50.944;5.260;2023-12-20T00:11:02;14.02;;;1.73;;
33268;SDS011;19640;50.944;5.260;2023-12-20T00:13:29;10.82;;;1.60;;
33268;SDS011;19640;50.944;5.260;2023-12-20T00:15:55;16.58;;;1.75;;
33268;SDS011;19640;50.944;5.260;2023-12-20T00:18:21;18.17;;;1.90;;
33268;SDS011;19640;50.944;5.260;2023-12-20T00:20:47;11.38;;;2.08;;
33268;SDS011;19640;50.944;5.260;2023-12-20T00:23:15;12.88;;;1.77;;
33268;SDS011;19640;50.944;5.260;2023-12-20T00:25:41;8.95;;;1.60;;
33268;SDS011;19640;50.944;5.260;2023-12-20T00:28:07;13.20;;;2.20;;
33268;SDS011;19640;50.944;5.260;2023-12-20T00:30:32;9.88;;;1.70;;
33268;SDS011;19640;50.944;5.260;2023-12-20T00:32:58;8.10;;;2.28;;
33268;SDS011;19640;50.944;5.260;2023-12-20T00:35:24;10.63;;;2.15;;
33268;SDS011;19640;50.944;5.260;2023-12-20T00:37:50;10.75;;;2.30;;
33268;SDS011;19640;50.944;5.260;2023-12-20T00:40:16;13.18;;;1.73;;
33268;SDS011;19640;50.944;5.260;2023-12-20T00:42:42;18.27;;;2.05;;
33268;SDS011;19640;50.944;5.260;2023-12-20T00:45:08;9.55;;;1.77;;
33268;SDS011;19640;50.944;5.260;2023-12-20T00:47:34;10.55;;;1.70;;
33268;SDS011;19640;50.944;5.260;2023-12-20T00:50:00;12.90;;;1.48;;
33268;SDS011;19640;50.944;5.260;2023-12-20T00:52:25;17.02;;;2.17;;
33268;SDS011;19640;50.944;5.260;2023-12-20T00:54:51;10.07;;;1.85;;
33268;SDS011;19640;50.944;5.260;2023-12-20T00:57:17;10.20;;;1.90;;
33268;SDS011;19640;50.944;5.260;2023-12-20T00:59:42;9.90;;;1.73;;
33268;SDS011;19640;50.944;5.260;2023-12-20T01:02:08;9.25;;;1.60;;
33268;SDS011;19640;50.944;5.260;2023-12-20T01:04:35;11.10;;;1.52;;
33268;SDS011;19640;50.944;5.260;2023-12-20T01:07:00;6.30;;;1.17;;
33268;SDS011;19640;50.944;5.260;2023-12-20T01:09:27;8.13;;;1.63;;
33268;SDS011;19640;50.944;5.260;2023-12-20T01:11:53;7.30;;;1.40;;
33268;SDS011;19640;50.944;5.260;2023-12-20T01:14:19;5.38;;;1.17;;
33268;SDS011;19640;50.944;5.260;2023-12-20T01:16:44;6.57;;;1.88;;
33268;SDS011;19640;50.944;5.260;2023-12-20T01:19:10;9.57;;;1.40;;
33268;SDS011;19640;50.944;5.260;2023-12-20T01:21:36;7.72;;;2.10;;
33268;SDS011;19640;50.944;5.260;2023-12-20T01:24:02;5.43;;;1.17;;
33268;SDS011;19640;50.944;5.260;2023-12-20T01:26:28;9.48;;;1.75;;
33268;SDS011;19640;50.944;5.260;2023-12-20T01:28:54;11.35;;;1.88;;
33268;SDS011;19640;50.944;5.260;2023-12-20T01:31:20;9.00;;;1.40;;
33268;SDS011;19640;50.944;5.260;2023-12-20T01:33:45;8.43;;;1.27;;
33268;SDS011;19640;50.944;5.260;2023-12-20T01:36:11;10.95;;;1.92;;
33268;SDS011;19640;50.944;5.260;2023-12-20T01:38:37;16.38;;;2.90;;
33268;SDS011;19640;50.944;5.260;2023-12-20T01:41:03;18.25;;;3.13;;
33268;SDS011;19640;50.944;5.260;2023-12-20T01:43:29;4.82;;;1.90;;
33268;SDS011;19640;50.944;5.260;2023-12-20T01:45:58;14.40;;;2.40;;
33268;SDS011;19640;50.944;5.260;2023-12-20T01:48:25;13.00;;;2.08;;
33268;SDS011;19640;50.944;5.260;2023-12-20T01:50:52;15.25;;;2.60;;
33268;SDS011;19640;50.944;5.260;2023-12-20T01:53:20;13.75;;;2.92;;
33268;SDS011;19640;50.944;5.260;2023-12-20T01:55:49;5.20;;;2.30;;
33268;SDS011;19640;50.944;5.260;2023-12-20T01:58:17;10.82;;;1.98;;
33268;SDS011;19640;50.944;5.260;2023-12-20T02:00:43;16.23;;;1.98;;
33268;SDS011;19640;50.944;5.260;2023-12-20T02:03:09;5.47;;;1.92;;
33268;SDS011;19640;50.944;5.260;2023-12-20T02:05:36;17.52;;;1.80;;
33268;SDS011;19640;50.944;5.260;2023-12-20T02:08:04;7.00;;;1.80;;
33268;SDS011;19640;50.944;5.260;2023-12-20T02:10:30;8.05;;;2.10;;
33268;SDS011;19640;50.944;5.260;2023-12-20T02:12:57;9.02;;;3.08;;
33268;SDS011;19640;50.944;5.260;2023-12-20T02:15:22;10.38;;;2.60;;
33268;SDS011;19640;50.944;5.260;2023-12-20T02:17:48;7.35;;;1.92;;
33268;SDS011;19640;50.944;5.260;2023-12-20T02:20:14;12.20;;;1.98;;
33268;SDS011;19640;50.944;5.260;2023-12-20T02:22:40;10.02;;;2.15;;
33268;SDS011;19640;50.944;5.260;2023-12-20T02:25:06;6.93;;;2.15;;
33268;SDS011;19640;50.944;5.260;2023-12-20T02:27:32;8.68;;;2.20;;
33268;SDS011;19640;50.944;5.260;2023-12-20T02:29:58;6.57;;;2.10;;
33268;SDS011;19640;50.944;5.260;2023-12-20T02:32:24;10.18;;;2.20;;
33268;SDS011;19640;50.944;5.260;2023-12-20T02:34:54;10.55;;;2.60;;
33268;SDS011;19640;50.944;5.260;2023-12-20T02:37:20;9.05;;;2.30;;
33268;SDS011;19640;50.944;5.260;2023-12-20T02:39:45;11.20;;;2.08;;
33268;SDS011;19640;50.944;5.260;2023-12-20T02:42:11;10.10;;;1.50;;
33268;SDS011;19640;50.944;5.260;2023-12-20T02:44:37;10.52;;;1.90;;
33268;SDS011;19640;50.944;5.260;2023-12-20T02:47:02;12.23;;;1.80;;
33268;SDS011;19640;50.944;5.260;2023-12-20T02:49:28;6.22;;;2.35;;
33268;SDS011;19640;50.944;5.260;2023-12-20T02:51:54;4.40;;;2.10;;
33268;SDS011;19640;50.944;5.260;2023-12-20T02:54:20;11.57;;;2.28;;
33268;SDS011;19640;50.944;5.260;2023-12-20T02:56:46;9.45;;;1.42;;
33268;SDS011;19640;50.944;5.260;2023-12-20T02:59:12;7.75;;;1.90;;
33268;SDS011;19640;50.944;5.260;2023-12-20T03:01:44;9.95;;;1.98;;
33268;SDS011;19640;50.944;5.260;2023-12-20T03:04:11;11.70;;;1.70;;
33268;SDS011;19640;50.944;5.260;2023-12-20T03:06:37;6.53;;;1.88;;
33268;SDS011;19640;50.944;5.260;2023-12-20T03:09:03;6.25;;;1.60;;
33268;SDS011;19640;50.944;5.260;2023-12-20T03:11:29;7.32;;;1.83;;
33268;SDS011;19640;50.944;5.260;2023-12-20T03:13:55;10.40;;;2.42;;
33268;SDS011;19640;50.944;5.260;2023-12-20T03:16:21;13.13;;;2.15;;
33268;SDS011;19640;50.944;5.260;2023-12-20T03:18:47;5.65;;;2.38;;
33268;SDS011;19640;50.944;5.260;2023-12-20T03:21:12;10.02;;;2.22;;
33268;SDS011;19640;50.944;5.260;2023-12-20T03:23:38;8.32;;;2.38;;
33268;SDS011;19640;50.944;5.260;2023-12-20T03:26:06;15.98;;;2.30;;
33268;SDS011;19640;50.944;5.260;2023-12-20T03:28:33;10.88;;;1.98;;
33268;SDS011;19640;50.944;5.260;2023-12-20T03:30:58;12.80;;;3.67;;
33268;SDS011;19640;50.944;5.260;2023-12-20T03:33:24;9.63;;;1.95;;
33268;SDS011;19640;50.944;5.260;2023-12-20T03:35:50;9.13;;;2.30;;
33268;SDS011;19640;50.944;5.260;2023-12-20T03:38:15;12.13;;;2.22;;
33268;SDS011;19640;50.944;5.260;2023-12-20T03:40:41;12.13;;;2.53;;
33268;SDS011;19640;50.944;5.260;2023-12-20T03:43:07;12.35;;;2.05;;
33268;SDS011;19640;50.944;5.260;2023-12-20T03:45:33;10.55;;;2.22;;
33268;SDS011;19640;50.944;5.260;2023-12-20T03:47:58;10.80;;;2.25;;
33268;SDS011;19640;50.944;5.260;2023-12-20T03:50:24;8.93;;;1.80;;
33268;SDS011;19640;50.944;5.260;2023-12-20T03:52:52;10.98;;;2.58;;
33268;SDS011;19640;50.944;5.260;2023-12-20T03:55:17;8.45;;;1.90;;
33268;SDS011;19640;50.944;5.260;2023-12-20T03:57:43;8.18;;;2.33;;
33268;SDS011;19640;50.944;5.260;2023-12-20T04:00:09;9.50;;;1.70;;
33268;SDS011;19640;50.944;5.260;2023-12-20T04:02:39;8.50;;;2.03;;
33268;SDS011;19640;50.944;5.260;2023-12-20T04:05:05;11.73;;;2.00;;
33268;SDS011;19640;50.944;5.260;2023-12-20T04:07:32;8.65;;;2.50;;
33268;SDS011;19640;50.944;5.260;2023-12-20T04:09:58;9.80;;;1.85;;
33268;SDS011;19640;50.944;5.260;2023-12-20T04:12:23;6.70;;;2.03;;
33268;SDS011;19640;50.944;5.260;2023-12-20T04:14:49;11.57;;;2.42;;
33268;SDS011;19640;50.944;5.260;2023-12-20T04:17:15;16.58;;;2.90;;
33268;SDS011;19640;50.944;5.260;2023-12-20T04:19:42;17.40;;;2.20;;
33268;SDS011;19640;50.944;5.260;2023-12-20T04:22:07;13.93;;;2.75;;
33268;SDS011;19640;50.944;5.260;2023-12-20T04:24:33;13.18;;;2.95;;
33268;SDS011;19640;50.944;5.260;2023-12-20T04:26:59;11.13;;;2.70;;
33268;SDS011;19640;50.944;5.260;2023-12-20T04:29:25;9.75;;;2.55;;
33268;SDS011;19640;50.944;5.260;2023-12-20T04:31:51;12.48;;;2.45;;
33268;SDS011;19640;50.944;5.260;2023-12-20T04:34:17;17.70;;;2.97;;
33268;SDS011;19640;50.944;5.260;2023-12-20T04:36:43;16.50;;;2.67;;
33268;SDS011;19640;50.944;5.260;2023-12-20T04:39:09;9.90;;;2.78;;
33268;SDS011;19640;50.944;5.260;2023-12-20T04:41:35;10.18;;;2.40;;
33268;SDS011;19640;50.944;5.260;2023-12-20T04:44:01;11.10;;;2.30;;
33268;SDS011;19640;50.944;5.260;2023-12-20T04:46:27;10.02;;;1.90;;
33268;SDS011;19640;50.944;5.260;2023-12-20T04:48:53;11.73;;;2.33;;
33268;SDS011;19640;50.944;5.260;2023-12-20T04:51:18;8.73;;;2.50;;
33268;SDS011;19640;50.944;5.260;2023-12-20T04:53:44;15.60;;;2.90;;
33268;SDS011;19640;50.944;5.260;2023-12-20T04:56:10;6.68;;;2.05;;
33268;SDS011;19640;50.944;5.260;2023-12-20T04:58:35;14.10;;;3.00;;
33268;SDS011;19640;50.944;5.260;2023-12-20T05:01:01;14.35;;;2.60;;
33268;SDS011;19640;50.944;5.260;2023-12-20T05:03:28;10.55;;;2.15;;
33268;SDS011;19640;50.944;5.260;2023-12-20T05:05:54;14.60;;;2.67;;
33268;SDS011;19640;50.944;5.260;2023-12-20T05:08:19;13.60;;;3.15;;
33268;SDS011;19640;50.944;5.260;2023-12-20T05:10:45;9.00;;;2.42;;
33268;SDS011;19640;50.944;5.260;2023-12-20T05:13:10;9.65;;;2.33;;
33268;SDS011;19640;50.944;5.260;2023-12-20T05:15:36;14.27;;;3.08;;
33268;SDS011;19640;50.944;5.260;2023-12-20T05:18:02;8.68;;;2.65;;
33268;SDS011;19640;50.944;5.260;2023-12-20T05:20:28;5.28;;;2.35;;
33268;SDS011;19640;50.944;5.260;2023-12-20T05:22:53;9.55;;;2.85;;
33268;SDS011;19640;50.944;5.260;2023-12-20T05:25:19;19.25;;;3.40;;
33268;SDS011;19640;50.944;5.260;2023-12-20T05:27:45;17.90;;;2.75;;
33268;SDS011;19640;50.944;5.260;2023-12-20T05:30:11;12.13;;;2.80;;
33268;SDS011;19640;50.944;5.260;2023-12-20T05:32:36;7.70;;;2.88;;
33268;SDS011;19640;50.944;5.260;2023-12-20T05:35:02;7.90;;;2.80;;
33268;SDS011;19640;50.944;5.260;2023-12-20T05:37:28;17.25;;;2.72;;
33268;SDS011;19640;50.944;5.260;2023-12-20T05:39:54;11.73;;;2.80;;
33268;SDS011;19640;50.944;5.260;2023-12-20T05:42:19;8.98;;;3.00;;
33268;SDS011;19640;50.944;5.260;2023-12-20T05:44:45;20.33;;;3.83;;
33268;SDS011;19640;50.944;5.260;2023-12-20T05:47:10;12.27;;;2.97;;
33268;SDS011;19640;50.944;5.260;2023-12-20T05:49:36;12.05;;;3.05;;
33268;SDS011;19640;50.944;5.260;2023-12-20T05:52:02;12.18;;;3.05;;
33268;SDS011;19640;50.944;5.260;2023-12-20T05:54:28;9.43;;;3.08;;
33268;SDS011;19640;50.944;5.260;2023-12-20T05:56:53;8.60;;;3.00;;
33268;SDS011;19640;50.944;5.260;2023-12-20T05:59:19;12.43;;;3.00;;
33268;SDS011;19640;50.944;5.260;2023-12-20T06:01:44;9.40;;;2.78;;
33268;SDS011;19640;50.944;5.260;2023-12-20T06:04:10;15.48;;;3.08;;
33268;SDS011;19640;50.944;5.260;2023-12-20T06:06:40;8.20;;;2.83;;
33268;SDS011;19640;50.944;5.260;2023-12-20T06:09:07;11.77;;;3.67;;
33268;SDS011;19640;50.944;5.260;2023-12-20T06:11:33;10.70;;;3.22;;
33268;SDS011;19640;50.944;5.260;2023-12-20T06:13:58;13.68;;;2.60;;
33268;SDS011;19640;50.944;5.260;2023-12-20T06:16:24;8.68;;;2.63;;
33268;SDS011;19640;50.944;5.260;2023-12-20T06:18:49;7.47;;;2.53;;
33268;SDS011;19640;50.944;5.260;2023-12-20T06:21:15;6.35;;;2.80;;
33268;SDS011;19640;50.944;5.260;2023-12-20T06:23:41;14.77;;;2.83;;
33268;SDS011;19640;50.944;5.260;2023-12-20T06:26:07;13.27;;;3.20;;
33268;SDS011;19640;50.944;5.260;2023-12-20T06:28:32;15.77;;;3.00;;
33268;SDS011;19640;50.944;5.260;2023-12-20T06:30:58;17.63;;;3.53;;
33268;SDS011;19640;50.944;5.260;2023-12-20T06:33:25;13.95;;;3.75;;
33268;SDS011;19640;50.944;5.260;2023-12-20T06:35:51;13.23;;;2.80;;
33268;SDS011;19640;50.944;5.260;2023-12-20T06:38:17;15.40;;;3.10;;
33268;SDS011;19640;50.944;5.260;2023-12-20T06:40:43;9.82;;;2.97;;
33268;SDS011;19640;50.944;5.260;2023-12-20T06:43:09;22.73;;;3.67;;
33268;SDS011;19640;50.944;5.260;2023-12-20T06:45:35;11.68;;;2.63;;
33268;SDS011;19640;50.944;5.260;2023-12-20T06:48:01;15.05;;;2.80;;
33268;SDS011;19640;50.944;5.260;2023-12-20T06:50:27;14.38;;;2.97;;
33268;SDS011;19640;50.944;5.260;2023-12-20T06:52:53;10.60;;;3.00;;
33268;SDS011;19640;50.944;5.260;2023-12-20T06:55:18;12.82;;;2.65;;
33268;SDS011;19640;50.944;5.260;2023-12-20T06:57:44;15.45;;;3.08;;
33268;SDS011;19640;50.944;5.260;2023-12-20T07:00:11;12.65;;;2.58;;
33268;SDS011;19640;50.944;5.260;2023-12-20T07:02:37;11.73;;;3.00;;
33268;SDS011;19640;50.944;5.260;2023-12-20T07:05:03;12.30;;;2.90;;
33268;SDS011;19640;50.944;5.260;2023-12-20T07:07:29;8.23;;;2.70;;
33268;SDS011;19640;50.944;5.260;2023-12-20T07:09:55;9.57;;;2.95;;
33268;SDS011;19640;50.944;5.260;2023-12-20T07:12:21;11.07;;;2.90;;
33268;SDS011;19640;50.944;5.260;2023-12-20T07:14:46;21.92;;;3.42;;
33268;SDS011;19640;50.944;5.260;2023-12-20T07:17:12;12.40;;;2.95;;
33268;SDS011;19640;50.944;5.260;2023-12-20T07:19:40;5.60;;;2.78;;
33268;SDS011;19640;50.944;5.260;2023-12-20T07:22:06;12.60;;;3.00;;
33268;SDS011;19640;50.944;5.260;2023-12-20T07:24:33;11.52;;;2.22;;
33268;SDS011;19640;50.944;5.260;2023-12-20T07:26:59;17.27;;;2.92;;
33268;SDS011;19640;50.944;5.260;2023-12-20T07:29:27;12.20;;;3.10;;
33268;SDS011;19640;50.944;5.260;2023-12-20T07:31:55;17.95;;;3.13;;
33268;SDS011;19640;50.944;5.260;2023-12-20T07:34:21;8.15;;;2.65;;
33268;SDS011;19640;50.944;5.260;2023-12-20T07:36:47;13.35;;;3.22;;
33268;SDS011;19640;50.944;5.260;2023-12-20T07:39:13;8.88;;;3.38;;
33268;SDS011;19640;50.944;5.260;2023-12-20T07:41:39;23.23;;;3.40;;
33268;SDS011;19640;50.944;5.260;2023-12-20T07:44:05;11.32;;;2.65;;
33268;SDS011;19640;50.944;5.260;2023-12-20T07:46:31;23.73;;;4.05;;
33268;SDS011;19640;50.944;5.260;2023-12-20T07:48:57;14.00;;;3.17;;
33268;SDS011;19640;50.944;5.260;2023-12-20T07:51:23;10.77;;;2.60;;
33268;SDS011;19640;50.944;5.260;2023-12-20T07:53:48;22.08;;;3.92;;
33268;SDS011;19640;50.944;5.260;2023-12-20T07:56:17;9.15;;;3.60;;
33268;SDS011;19640;50.944;5.260;2023-12-20T07:58:44;16.52;;;3.20;;
33268;SDS011;19640;50.944;5.260;2023-12-20T08:01:10;14.40;;;3.80;;
33268;SDS011;19640;50.944;5.260;2023-12-20T08:03:37;9.77;;;3.45;;
33268;SDS011;19640;50.944;5.260;2023-12-20T08:06:03;10.45;;;2.58;;
33268;SDS011;19640;50.944;5.260;2023-12-20T08:08:29;11.00;;;2.53;;
33268;SDS011;19640;50.944;5.260;2023-12-20T08:10:55;7.15;;;2.40;;
33268;SDS011;19640;50.944;5.260;2023-12-20T08:13:23;13.43;;;3.08;;
33268;SDS011;19640;50.944;5.260;2023-12-20T08:15:51;7.38;;;2.83;;
33268;SDS011;19640;50.944;5.260;2023-12-20T08:18:21;12.32;;;2.90;;
33268;SDS011;19640;50.944;5.260;2023-12-20T08:20:47;12.68;;;2.92;;
33268;SDS011;19640;50.944;5.260;2023-12-20T08:23:13;8.90;;;2.40;;
33268;SDS011;19640;50.944;5.260;2023-12-20T08:25:40;11.98;;;2.78;;
33268;SDS011;19640;50.944;5.260;2023-12-20T08:28:06;11.98;;;2.78;;
33268;SDS011;19640;50.944;5.260;2023-12-20T08:30:31;11.63;;;2.55;;
33268;SDS011;19640;50.944;5.260;2023-12-20T08:32:59;8.18;;;2.28;;
33268;SDS011;19640;50.944;5.260;2023-12-20T08:35:25;15.50;;;3.55;;
33268;SDS011;19640;50.944;5.260;2023-12-20T08:37:51;7.05;;;1.90;;
33268;SDS011;19640;50.944;5.260;2023-12-20T08:40:17;10.32;;;2.70;;
33268;SDS011;19640;50.944;5.260;2023-12-20T08:42:42;13.13;;;3.13;;
33268;SDS011;19640;50.944;5.260;2023-12-20T08:45:09;12.73;;;2.50;;
33268;SDS011;19640;50.944;5.260;2023-12-20T08:47:35;10.38;;;2.25;;
33268;SDS011;19640;50.944;5.260;2023-12-20T08:50:02;17.98;;;3.65;;
33268;SDS011;19640;50.944;5.260;2023-12-20T08:52:28;15.27;;;2.70;;
33268;SDS011;19640;50.944;5.260;2023-12-20T08:54:54;11.68;;;2.20;;
33268;SDS011;19640;50.944;5.260;2023-12-20T08:57:20;15.02;;;2.47;;
33268;SDS011;19640;50.944;5.260;2023-12-20T08:59:49;17.20;;;2.55;;
33268;SDS011;19640;50.944;5.260;2023-12-20T09:02:16;7.18;;;1.70;;
33268;SDS011;19640;50.944;5.260;2023-12-20T09:04:42;11.18;;;2.30;;
33268;SDS011;19640;50.944;5.260;2023-12-20T09:07:20;12.38;;;2.35;;
33268;SDS011;19640;50.944;5.260;2023-12-20T09:09:50;19.67;;;2.17;;
33268;SDS011;19640;50.944;5.260;2023-12-20T09:12:17;12.20;;;2.78;;
33268;SDS011;19640;50.944;5.260;2023-12-20T09:14:44;15.00;;;2.55;;
33268;SDS011;19640;50.944;5.260;2023-12-20T09:17:10;11.65;;;2.67;;
33268;SDS011;19640;50.944;5.260;2023-12-20T09:19:37;11.38;;;1.95;;
33268;SDS011;19640;50.944;5.260;2023-12-20T09:22:03;10.73;;;1.95;;
33268;SDS011;19640;50.944;5.260;2023-12-20T09:24:30;14.05;;;2.35;;
33268;SDS011;19640;50.944;5.260;2023-12-20T09:26:56;6.38;;;1.95;;
33268;SDS011;19640;50.944;5.260;2023-12-20T09:29:22;13.63;;;2.13;;
33268;SDS011;19640;50.944;5.260;2023-12-20T09:31:48;7.20;;;1.98;;
33268;SDS011;19640;50.944;5.260;2023-12-20T09:34:15;11.07;;;2.25;;
33268;SDS011;19640;50.944;5.260;2023-12-20T09:36:42;6.85;;;1.75;;
33268;SDS011;19640;50.944;5.260;2023-12-20T09:39:14;6.00;;;1.80;;
33268;SDS011;19640;50.944;5.260;2023-12-20T09:41:44;11.93;;;2.20;;
33268;SDS011;19640;50.944;5.260;2023-12-20T09:44:15;14.18;;;2.38;;
33268;SDS011;19640;50.944;5.260;2023-12-20T09:46:43;14.25;;;2.25;;
33268;SDS011;19640;50.944;5.260;2023-12-20T09:49:11;13.75;;;2.85;;
33268;SDS011;19640;50.944;5.260;2023-12-20T09:51:38;6.93;;;2.08;;
33268;SDS011;19640;50.944;5.260;2023-12-20T09:54:05;11.43;;;1.73;;
33268;SDS011;19640;50.944;5.260;2023-12-20T09:56:31;9.38;;;2.50;;
33268;SDS011;19640;50.944;5.260;2023-12-20T09:58:57;11.70;;;1.65;;
33268;SDS011;19640;50.944;5.260;2023-12-20T10:01:26;15.55;;;2.05;;
33268;SDS011;19640;50.944;5.260;2023-12-20T10:03:54;12.05;;;1.92;;
33268;SDS011;19640;50.944;5.260;2023-12-20T10:06:20;10.77;;;1.88;;
33268;SDS011;19640;50.944;5.260;2023-12-20T10:08:47;13.98;;;1.80;;
33268;SDS011;19640;50.944;5.260;2023-12-20T10:11:13;10.25;;;1.58;;
33268;SDS011;19640;50.944;5.260;2023-12-20T10:13:39;9.90;;;3.05;;
33268;SDS011;19640;50.944;5.260;2023-12-20T10:16:09;15.85;;;2.25;;
33268;SDS011;19640;50.944;5.260;2023-12-20T10:18:34;7.68;;;2.33;;
33268;SDS011;19640;50.944;5.260;2023-12-20T10:21:01;10.48;;;1.77;;
33268;SDS011;19640;50.944;5.260;2023-12-20T10:23:29;12.38;;;1.70;;
33268;SDS011;19640;50.944;5.260;2023-12-20T10:25:59;12.27;;;2.60;;
33268;SDS011;19640;50.944;5.260;2023-12-20T10:28:25;10.25;;;2.08;;
33268;SDS011;19640;50.944;5.260;2023-12-20T10:30:54;8.95;;;1.90;;
33268;SDS011;19640;50.944;5.260;2023-12-20T10:33:25;13.57;;;2.80;;
33268;SDS011;19640;50.944;5.260;2023-12-20T10:35:52;10.35;;;1.85;;
33268;SDS011;19640;50.944;5.260;2023-12-20T10:38:18;4.90;;;1.63;;
33268;SDS011;19640;50.944;5.260;2023-12-20T10:40:45;9.23;;;2.00;;
33268;SDS011;19640;50.944;5.260;2023-12-20T10:43:11;9.63;;;1.60;;
33268;SDS011;19640;50.944;5.260;2023-12-20T10:45:37;10.20;;;1.80;;
33268;SDS011;19640;50.944;5.260;2023-12-20T10:48:03;6.95;;;1.80;;
33268;SDS011;19640;50.944;5.260;2023-12-20T10:50:30;8.02;;;1.95;;
33268;SDS011;19640;50.944;5.260;2023-12-20T10:52:56;9.35;;;2.15;;
33268;SDS011;19640;50.944;5.260;2023-12-20T10:55:26;10.70;;;1.90;;
33268;SDS011;19640;50.944;5.260;2023-12-20T10:57:52;7.63;;;2.17;;
33268;SDS011;19640;50.944;5.260;2023-12-20T11:00:20;9.05;;;1.70;;
33268;SDS011;19640;50.944;5.260;2023-12-20T11:02:49;10.32;;;2.30;;
33268;SDS011;19640;50.944;5.260;2023-12-20T11:05:27;9.13;;;1.85;;
33268;SDS011;19640;50.944;5.260;2023-12-20T11:08:19;11.07;;;1.98;;
33268;SDS011;19640;50.944;5.260;2023-12-20T11:13:44;6.32;;;1.35;;
33268;SDS011;19640;50.944;5.260;2023-12-20T11:18:45;6.50;;;1.40;;
33268;SDS011;19640;50.944;5.260;2023-12-20T11:21:11;10.43;;;2.10;;
33268;SDS011;19640;50.944;5.260;2023-12-20T11:23:36;12.73;;;2.13;;
33268;SDS011;19640;50.944;5.260;2023-12-20T11:26:02;13.70;;;2.47;;
33268;SDS011;19640;50.944;5.260;2023-12-20T11:28:28;10.57;;;1.70;;
33268;SDS011;19640;50.944;5.260;2023-12-20T11:30:58;10.50;;;2.05;;
33268;SDS011;19640;50.944;5.260;2023-12-20T11:33:25;14.40;;;2.28;;
33268;SDS011;19640;50.944;5.260;2023-12-20T11:35:59;10.80;;;1.65;;
33268;SDS011;19640;50.944;5.260;2023-12-20T11:38:25;11.18;;;3.15;;
33268;SDS011;19640;50.944;5.260;2023-12-20T11:40:51;10.85;;;2.53;;
33268;SDS011;19640;50.944;5.260;2023-12-20T11:43:38;10.18;;;1.75;;
33268;SDS011;19640;50.944;5.260;2023-12-20T11:46:08;7.57;;;2.45;;
33268;SDS011;19640;50.944;5.260;2023-12-20T11:48:35;11.85;;;2.53;;
33268;SDS011;19640;50.944;5.260;2023-12-20T11:51:08;12.13;;;2.45;;
33268;SDS011;19640;50.944;5.260;2023-12-20T11:53:35;12.15;;;2.10;;
33268;SDS011;19640;50.944;5.260;2023-12-20T11:56:02;15.50;;;2.20;;
33268;SDS011;19640;50.944;5.260;2023-12-20T11:58:29;4.68;;;1.80;;
33268;SDS011;19640;50.944;5.260;2023-12-20T12:00:55;14.55;;;1.65;;
33268;SDS011;19640;50.944;5.260;2023-12-20T12:03:21;11.07;;;1.98;;
33268;SDS011;19640;50.944;5.260;2023-12-20T12:05:49;8.27;;;1.90;;
33268;SDS011;19640;50.944;5.260;2023-12-20T12:08:14;9.18;;;2.55;;
33268;SDS011;19640;50.944;5.260;2023-12-20T12:10:42;9.65;;;2.42;;
33268;SDS011;19640;50.944;5.260;2023-12-20T12:13:09;9.85;;;2.38;;
33268;SDS011;19640;50.944;5.260;2023-12-20T12:15:36;6.80;;;2.45;;
33268;SDS011;19640;50.944;5.260;2023-12-20T12:18:03;13.82;;;2.33;;
33268;SDS011;19640;50.944;5.260;2023-12-20T12:20:30;7.53;;;2.38;;
33268;SDS011;19640;50.944;5.260;2023-12-20T12:22:59;16.08;;;2.55;;
33268;SDS011;19640;50.944;5.260;2023-12-20T12:25:26;12.20;;;2.50;;
33268;SDS011;19640;50.944;5.260;2023-12-20T12:27:52;10.18;;;2.33;;
33268;SDS011;19640;50.944;5.260;2023-12-20T12:30:18;8.82;;;2.22;;
33268;SDS011;19640;50.944;5.260;2023-12-20T12:32:44;9.57;;;2.83;;
33268;SDS011;19640;50.944;5.260;2023-12-20T12:35:10;9.25;;;2.53;;
33268;SDS011;19640;50.944;5.260;2023-12-20T12:37:39;11.52;;;2.58;;
33268;SDS011;19640;50.944;5.260;2023-12-20T12:40:12;9.38;;;3.03;;
33268;SDS011;19640;50.944;5.260;2023-12-20T12:42:40;8.50;;;3.00;;
33268;SDS011;19640;50.944;5.260;2023-12-20T12:45:07;12.43;;;2.92;;
33268;SDS011;19640;50.944;5.260;2023-12-20T12:47:33;10.73;;;2.85;;
33268;SDS011;19640;50.944;5.260;2023-12-20T12:49:59;10.88;;;2.35;;
33268;SDS011;19640;50.944;5.260;2023-12-20T12:52:25;12.88;;;3.22;;
33268;SDS011;19640;50.944;5.260;2023-12-20T12:54:52;12.77;;;2.90;;
33268;SDS011;19640;50.944;5.260;2023-12-20T12:57:18;12.32;;;3.03;;
33268;SDS011;19640;50.944;5.260;2023-12-20T12:59:44;9.80;;;2.13;;
33268;SDS011;19640;50.944;5.260;2023-12-20T13:02:14;11.20;;;2.45;;
33268;SDS011;19640;50.944;5.260;2023-12-20T13:04:40;8.77;;;2.63;;
33268;SDS011;19640;50.944;5.260;2023-12-20T13:07:06;20.13;;;2.55;;
33268;SDS011;19640;50.944;5.260;2023-12-20T13:09:33;15.25;;;3.10;;
33268;SDS011;19640;50.944;5.260;2023-12-20T13:11:59;19.83;;;2.83;;
33268;SDS011;19640;50.944;5.260;2023-12-20T13:14:28;8.02;;;2.10;;
33268;SDS011;19640;50.944;5.260;2023-12-20T13:16:54;11.82;;;2.53;;
33268;SDS011;19640;50.944;5.260;2023-12-20T13:19:21;12.82;;;2.80;;
33268;SDS011;19640;50.944;5.260;2023-12-20T13:21:46;10.70;;;2.83;;
33268;SDS011;19640;50.944;5.260;2023-12-20T13:24:12;15.55;;;2.30;;
33268;SDS011;19640;50.944;5.260;2023-12-20T13:26:37;8.75;;;2.47;;
33268;SDS011;19640;50.944;5.260;2023-12-20T13:29:03;11.15;;;2.63;;
33268;SDS011;19640;50.944;5.260;2023-12-20T13:31:29;9.27;;;2.60;;
33268;SDS011;19640;50.944;5.260;2023-12-20T13:33:55;11.98;;;2.90;;
33268;SDS011;19640;50.944;5.260;2023-12-20T13:36:20;18.90;;;3.08;;
33268;SDS011;19640;50.944;5.260;2023-12-20T13:38:46;17.02;;;2.45;;
33268;SDS011;19640;50.944;5.260;2023-12-20T13:41:12;18.00;;;2.92;;
33268;SDS011;19640;50.944;5.260;2023-12-20T13:43:38;9.52;;;2.28;;
33268;SDS011;19640;50.944;5.260;2023-12-20T13:46:03;14.30;;;2.47;;
33268;SDS011;19640;50.944;5.260;2023-12-20T13:48:29;13.02;;;2.58;;
33268;SDS011;19640;50.944;5.260;2023-12-20T13:50:55;5.72;;;2.15;;
33268;SDS011;19640;50.944;5.260;2023-12-20T13:53:20;12.48;;;2.70;;
33268;SDS011;19640;50.944;5.260;2023-12-20T13:55:46;13.40;;;2.90;;
33268;SDS011;19640;50.944;5.260;2023-12-20T13:58:11;18.70;;;3.10;;
33268;SDS011;19640;50.944;5.260;2023-12-20T14:00:37;11.82;;;2.88;;
33268;SDS011;19640;50.944;5.260;2023-12-20T14:03:03;16.17;;;3.70;;
33268;SDS011;19640;50.944;5.260;2023-12-20T14:05:29;16.88;;;3.42;;
33268;SDS011;19640;50.944;5.260;2023-12-20T14:07:56;12.57;;;3.10;;
33268;SDS011;19640;50.944;5.260;2023-12-20T14:10:25;9.55;;;3.05;;
33268;SDS011;19640;50.944;5.260;2023-12-20T14:12:54;15.32;;;3.00;;
33268;SDS011;19640;50.944;5.260;2023-12-20T14:15:20;11.63;;;2.90;;
33268;SDS011;19640;50.944;5.260;2023-12-20T14:17:46;12.93;;;2.42;;
33268;SDS011;19640;50.944;5.260;2023-12-20T14:20:11;13.50;;;2.53;;
33268;SDS011;19640;50.944;5.260;2023-12-20T14:22:40;8.52;;;2.55;;
33268;SDS011;19640;50.944;5.260;2023-12-20T14:25:15;14.25;;;3.00;;
33268;SDS011;19640;50.944;5.260;2023-12-20T14:27:41;9.90;;;3.03;;
33268;SDS011;19640;50.944;5.260;2023-12-20T14:30:10;12.20;;;2.83;;
33268;SDS011;19640;50.944;5.260;2023-12-20T14:32:36;10.38;;;3.00;;
33268;SDS011;19640;50.944;5.260;2023-12-20T14:35:04;8.85;;;2.60;;
33268;SDS011;19640;50.944;5.260;2023-12-20T14:37:33;11.90;;;2.70;;
33268;SDS011;19640;50.944;5.260;2023-12-20T14:40:00;9.68;;;2.60;;